Time;durP1;ratioP1;P1;durP2;ratioP2;P2;SDS_P1;SDS_P2;PMS_P1;PMS_P2;Temp;Humidity;BMP_temperature;BMP_pressure;BME280_temperature;BME280_humidity;BME280_pressure;Samples;Min_cycle;Max_cycle;Signal;HPM_P1;HPM_P2
2022/11/23 00:00:35;;;;;;;10.80;6.57;;;;;;;0.67;92.39;98457.53;4904394;29;20039;-67
2022/11/23 00:02:59;;;;;;;17.10;7.38;;;;;;;0.79;92.29;98463.06;4876512;29;20118;-69
2022/11/23 00:05:25;;;;;;;17.95;8.55;;;;;;;0.74;92.35;98463.31;4899301;29;20075;-70
2022/11/23 00:07:50;;;;;;;14.00;7.13;;;;;;;0.75;92.65;98458.91;4866353;29;20102;-70
2022/11/23 00:10:15;;;;;;;11.68;6.90;;;;;;;0.79;92.54;98471.75;4898467;29;20146;-68
2022/11/23 00:12:40;;;;;;;15.45;8.68;;;;;;;0.67;92.53;98459.31;4902939;29;20043;-69
2022/11/23 00:15:05;;;;;;;10.70;6.80;;;;;;;0.58;92.06;98459.72;4888647;29;20062;-69
2022/11/23 00:17:31;;;;;;;13.93;7.60;;;;;;;0.63;92.25;98455.13;4921539;28;20046;-70
2022/11/23 00:19:55;;;;;;;9.98;6.47;;;;;;;0.59;92.17;98451.78;4925899;28;20043;-66
2022/11/23 00:22:20;;;;;;;14.43;8.10;;;;;;;0.60;92.25;98452.66;4890872;28;20047;-66
2022/11/23 00:24:45;;;;;;;18.17;9.32;;;;;;;0.64;92.51;98457.66;4924260;28;20047;-67
2022/11/23 00:27:09;;;;;;;11.60;6.72;;;;;;;0.65;92.48;98450.66;4923136;28;20554;-66
2022/11/23 00:29:34;;;;;;;19.33;11.55;;;;;;;0.72;92.92;98447.63;4922418;28;20043;-73
2022/11/23 00:31:58;;;;;;;14.65;8.00;;;;;;;0.69;92.78;98446.94;4915752;29;20042;-67
2022/11/23 00:34:23;;;;;;;18.83;9.20;;;;;;;0.72;92.86;98449.41;4919427;29;20069;-67
2022/11/23 00:36:50;;;;;;;19.40;8.90;;;;;;;0.75;92.65;98441.38;4904481;29;20049;-69
2022/11/23 00:39:15;;;;;;;18.33;10.43;;;;;;;0.73;93.20;98451.09;4918373;29;20066;-69
2022/11/23 00:41:41;;;;;;;15.70;9.48;;;;;;;0.71;92.88;98451.19;4905606;29;20499;-69
2022/11/23 00:44:06;;;;;;;13.13;7.38;;;;;;;0.77;92.93;98438.69;4909563;29;20904;-67
2022/11/23 00:46:31;;;;;;;15.73;9.70;;;;;;;0.75;93.33;98449.25;4884674;29;20047;-69
2022/11/23 00:48:57;;;;;;;16.67;9.00;;;;;;;0.75;93.38;98454.50;4905743;29;20773;-69
2022/11/23 00:51:32;;;;;;;18.30;9.20;;;;;;;0.80;93.22;98452.47;4901872;29;20035;-67
2022/11/23 00:53:58;;;;;;;11.90;7.78;;;;;;;0.81;93.15;98446.31;4885665;29;20116;-69
2022/11/23 00:56:23;;;;;;;12.27;8.13;;;;;;;0.83;93.47;98448.84;4896433;29;20047;-71
2022/11/23 00:58:49;;;;;;;14.07;8.18;;;;;;;0.90;93.26;98456.34;4904534;28;20043;-68
2022/11/23 01:01:16;;;;;;;14.07;8.20;;;;;;;0.87;93.69;98453.88;4920689;28;20043;-67
2022/11/23 01:03:44;;;;;;;13.82;8.20;;;;;;;0.84;93.29;98456.66;4902991;28;20046;-71
2022/11/23 01:06:18;;;;;;;14.65;8.20;;;;;;;0.84;93.70;98447.94;4898939;29;20122;-65
2022/11/23 01:08:48;;;;;;;11.80;7.57;;;;;;;0.82;93.51;98450.63;4913688;29;20054;-65
2022/11/23 01:11:13;;;;;;;12.52;7.03;;;;;;;0.82;93.64;98445.38;4924151;29;20061;-67
2022/11/23 01:13:40;;;;;;;12.65;6.80;;;;;;;0.87;93.63;98439.91;4909262;29;20035;-67
2022/11/23 01:16:11;;;;;;;13.75;7.38;;;;;;;0.91;93.48;98441.44;4921555;28;20055;-71
2022/11/23 01:18:36;;;;;;;11.38;6.97;;;;;;;0.79;93.66;98442.09;4922270;29;20509;-67
2022/11/23 01:21:01;;;;;;;12.40;7.18;;;;;;;0.79;93.46;98440.28;4922030;28;20470;-69
2022/11/23 01:23:29;;;;;;;11.43;6.95;;;;;;;0.75;93.84;98437.91;4922220;29;20074;-70
2022/11/23 01:25:53;;;;;;;13.57;7.35;;;;;;;0.71;93.81;98440.69;4918249;28;20044;-68
2022/11/23 01:28:19;;;;;;;12.25;6.63;;;;;;;0.73;93.76;98438.84;4919347;29;20438;-69
2022/11/23 01:30:44;;;;;;;11.85;6.88;;;;;;;0.72;93.60;98438.91;4920268;28;20434;-69
2022/11/23 01:33:08;;;;;;;12.70;6.72;;;;;;;0.71;93.36;98437.22;4904077;29;20088;-69
2022/11/23 01:35:33;;;;;;;10.25;6.68;;;;;;;0.73;93.32;98438.00;4919908;28;20110;-70
2022/11/23 01:37:58;;;;;;;11.88;6.68;;;;;;;0.72;93.37;98438.91;4905212;28;20126;-70
2022/11/23 01:40:22;;;;;;;11.85;7.07;;;;;;;0.79;93.34;98435.03;4893586;29;20047;-67
2022/11/23 01:42:59;;;;;;;10.93;6.30;;;;;;;0.78;93.37;98441.25;4913711;28;20043;-68
2022/11/23 01:46:04;;;;;;;11.15;6.57;;;;;;;0.78;93.90;98446.50;4919074;28;20058;-71
2022/11/23 01:48:46;;;;;;;12.38;6.22;;;;;;;0.77;93.68;98444.78;4860577;29;20052;-73
2022/11/23 01:51:16;;;;;;;15.65;7.25;;;;;;;0.76;93.61;98439.63;4861569;29;20048;-77
2022/11/23 01:53:42;;;;;;;14.85;6.55;;;;;;;0.80;93.47;98444.59;4848656;29;20204;-70
2022/11/23 01:56:12;;;;;;;13.20;8.07;;;;;;;0.74;94.07;98447.56;4862563;29;20116;-72
2022/11/23 01:58:42;;;;;;;14.18;7.10;;;;;;;0.74;93.62;98447.56;4847511;29;20045;-79
2022/11/23 02:01:07;;;;;;;10.52;6.57;;;;;;;0.74;93.83;98444.94;4846708;29;20127;-67
2022/11/23 02:03:33;;;;;;;12.43;7.47;;;;;;;0.75;93.34;98440.53;4828732;29;20229;-71
2022/11/23 02:06:01;;;;;;;14.30;6.47;;;;;;;0.77;93.39;98451.81;4847441;29;20406;-69
2022/11/23 02:08:27;;;;;;;11.45;6.72;;;;;;;0.78;93.84;98456.97;4845140;29;20045;-70
2022/11/23 02:10:53;;;;;;;18.15;9.35;;;;;;;0.80;93.72;98462.97;4862412;29;20061;-70
2022/11/23 02:13:18;;;;;;;12.05;8.05;;;;;;;0.78;93.56;98464.84;4835682;29;20040;-69
2022/11/23 02:15:44;;;;;;;13.50;8.32;;;;;;;0.79;93.53;98455.22;4861205;29;20072;-72
2022/11/23 02:18:15;;;;;;;13.60;8.00;;;;;;;0.81;93.73;98453.31;4860925;29;20078;-72
2022/11/23 02:20:40;;;;;;;12.27;7.53;;;;;;;0.78;93.71;98454.34;4861434;29;20587;-73
2022/11/23 02:23:15;;;;;;;16.13;9.05;;;;;;;0.79;93.78;98447.34;4860721;29;20500;-72
2022/11/23 02:25:45;;;;;;;13.15;8.57;;;;;;;0.78;93.57;98450.88;4893927;29;20098;-71
2022/11/23 02:28:14;;;;;;;17.40;9.02;;;;;;;0.77;94.02;98452.66;4901999;29;20083;-71
2022/11/23 02:30:40;;;;;;;16.13;9.20;;;;;;;0.77;93.85;98462.31;4884870;29;20055;-70
2022/11/23 02:33:05;;;;;;;14.00;8.05;;;;;;;0.77;93.82;98459.69;4905307;29;20067;-69
2022/11/23 02:35:31;;;;;;;12.93;8.57;;;;;;;0.74;93.81;98463.31;4889095;29;20048;-70
2022/11/23 02:37:57;;;;;;;14.02;8.60;;;;;;;0.85;93.89;98454.88;4893075;29;20043;-69
2022/11/23 02:40:32;;;;;;;13.20;9.57;;;;;;;0.82;94.07;98450.63;4911457;29;20039;-68
2022/11/23 02:42:57;;;;;;;;;;;;;;;0.98;94.17;98450.69;4910539;28;20130;-69
2022/11/23 02:45:59;;;;;;;13.82;9.30;;;;;;;0.84;93.83;98448.78;4927362;28;19927;-69
2022/11/23 02:48:24;;;;;;;14.75;9.02;;;;;;;0.73;93.91;98443.25;4911832;29;20745;-72
2022/11/23 02:50:50;;;;;;;11.75;8.07;;;;;;;0.71;94.04;98458.19;4892420;28;20422;-71
2022/11/23 02:53:14;;;;;;;12.80;8.30;;;;;;;0.70;93.62;98453.88;4906339;29;20038;-70
2022/11/23 02:55:39;;;;;;;11.43;7.55;;;;;;;0.68;93.55;98451.31;4906686;29;20557;-71
2022/11/23 02:58:04;;;;;;;11.95;7.78;;;;;;;0.71;93.73;98451.19;4875054;29;20043;-72
2022/11/23 03:00:29;;;;;;;11.43;8.07;;;;;;;0.74;93.37;98455.44;4917436;28;20063;-69
2022/11/23 03:02:59;;;;;;;11.73;7.40;;;;;;;0.78;93.66;98454.34;4908727;29;20047;-73
2022/11/23 03:05:24;;;;;;;8.98;6.93;;;;;;;0.84;93.81;98466.28;4923311;29;20074;-70
2022/11/23 03:07:49;;;;;;;11.57;6.93;;;;;;;0.84;93.76;98464.53;4923797;28;20043;-76
2022/11/23 03:10:14;;;;;;;9.77;7.35;;;;;;;0.87;93.86;98464.38;4888270;29;20051;-75
2022/11/23 03:12:38;;;;;;;10.88;7.53;;;;;;;0.92;93.89;98467.59;4922951;29;20034;-73
2022/11/23 03:15:04;;;;;;;9.80;6.95;;;;;;;0.98;93.67;98472.53;4920868;28;20042;-74
2022/11/23 03:17:30;;;;;;;10.02;7.10;;;;;;;1.01;93.66;98461.06;4935229;28;20574;-74
2022/11/23 03:19:55;;;;;;;12.23;6.93;;;;;;;1.00;93.80;98465.44;4889695;29;20442;-74
2022/11/23 03:22:21;;;;;;;11.48;7.43;;;;;;;1.01;93.74;98461.06;4904527;29;20852;-73
2022/11/23 03:24:46;;;;;;;10.82;7.20;;;;;;;0.98;93.55;98464.69;4907472;29;20526;-75
2022/11/23 03:27:13;;;;;;;10.43;6.63;;;;;;;1.00;93.87;98467.22;4904581;29;20454;-72
2022/11/23 03:29:39;;;;;;;11.85;7.43;;;;;;;1.01;93.68;98467.16;4890045;29;20043;-74
2022/11/23 03:32:09;;;;;;;10.82;7.25;;;;;;;1.02;93.69;98458.31;4914476;29;20034;-74
2022/11/23 03:34:35;;;;;;;10.98;6.30;;;;;;;1.04;93.94;98461.72;4902439;28;20820;-75
2022/11/23 03:37:01;;;;;;;10.80;7.10;;;;;;;1.07;93.59;98472.06;4909067;29;20043;-74
2022/11/23 03:39:26;;;;;;;8.75;6.55;;;;;;;1.06;93.93;98454.63;4903411;29;20047;-75
2022/11/23 03:42:11;;;;;;;;;;;;;;;1.16;93.97;98457.59;4868475;29;20057;-73
2022/11/23 03:44:36;;;;;;;9.43;6.53;;;;;;;1.06;93.56;98465.13;4868851;29;19918;-72
2022/11/23 03:47:02;;;;;;;8.55;6.13;;;;;;;1.05;93.57;98458.16;4883454;29;20051;-70
2022/11/23 03:49:28;;;;;;;12.25;6.90;;;;;;;1.04;93.64;98466.97;4883210;29;20048;-71
2022/11/23 03:51:52;;;;;;;14.65;6.28;;;;;;;1.03;93.79;98462.63;4867757;29;20142;-71
2022/11/23 03:54:17;;;;;;;8.93;5.65;;;;;;;1.06;93.46;98462.50;4872099;29;20210;-70
2022/11/23 03:56:42;;;;;;;8.65;6.35;;;;;;;1.06;93.64;98457.25;4874200;29;20062;-71
2022/11/23 03:59:07;;;;;;;9.68;6.15;;;;;;;1.08;93.73;98449.28;4886142;29;20056;-72
2022/11/23 04:01:31;;;;;;;9.75;5.90;;;;;;;1.11;93.42;98464.88;4885099;29;20059;-71
2022/11/23 04:04:02;;;;;;;9.52;5.72;;;;;;;1.19;93.92;98461.84;4884871;29;20058;-71
2022/11/23 04:06:49;;;;;;;10.27;5.70;;;;;;;1.11;93.72;98470.13;4860585;29;20052;-72
2022/11/23 04:09:18;;;;;;;9.82;5.63;;;;;;;1.03;93.75;98465.25;4882581;29;20396;-71
2022/11/23 04:12:03;;;;;;;7.53;4.88;;;;;;;1.09;93.77;98472.84;4872177;29;20056;-69
2022/11/23 04:14:28;;;;;;;5.90;3.92;;;;;;;1.04;93.88;98468.75;4869133;29;20135;-70
2022/11/23 04:16:53;;;;;;;5.18;3.78;;;;;;;1.03;93.78;98460.00;4863951;29;20215;-72
2022/11/23 04:19:18;;;;;;;6.70;5.20;;;;;;;1.04;93.51;98461.72;4881585;29;20125;-70
2022/11/23 04:21:42;;;;;;;8.50;5.00;;;;;;;1.05;93.65;98458.16;4918300;28;20039;-70
2022/11/23 04:24:07;;;;;;;5.47;3.75;;;;;;;1.05;93.36;98471.28;4903977;29;20054;-69
2022/11/23 04:26:34;;;;;;;8.35;5.05;;;;;;;1.08;93.38;98462.41;4871458;28;20457;-70
2022/11/23 04:28:59;;;;;;;8.38;4.70;;;;;;;1.09;93.41;98467.59;4884049;29;20044;-70
2022/11/23 04:31:25;;;;;;;6.95;4.40;;;;;;;1.08;93.68;98476.38;4913145;28;20161;-70
2022/11/23 04:34:00;;;;;;;7.03;4.60;;;;;;;1.11;93.71;98482.41;4895489;29;20051;-70
2022/11/23 04:36:26;;;;;;;7.45;5.35;;;;;;;1.11;93.56;98477.16;4901501;28;20043;-70
2022/11/23 04:38:51;;;;;;;9.15;4.13;;;;;;;1.12;93.28;98471.84;4886526;29;20083;-71
2022/11/23 04:41:20;;;;;;;5.95;4.35;;;;;;;1.13;93.49;98485.81;4889136;28;20047;-72
2022/11/23 04:43:49;;;;;;;6.07;4.05;;;;;;;1.14;93.55;98480.47;4902273;29;20513;-73
2022/11/23 04:46:14;;;;;;;7.13;4.50;;;;;;;1.14;93.57;98482.22;4899453;29;20180;-71
2022/11/23 04:48:41;;;;;;;5.03;3.83;;;;;;;1.15;93.73;98487.41;4863215;29;20055;-72
2022/11/23 04:51:06;;;;;;;11.40;4.25;;;;;;;1.18;93.49;98486.41;4879463;29;20058;-72
2022/11/23 04:53:35;;;;;;;4.65;3.75;;;;;;;1.17;93.53;98476.81;4863854;29;20055;-73
2022/11/23 04:56:00;;;;;;;4.43;3.47;;;;;;;1.17;93.64;98487.34;4879699;29;20051;-71
2022/11/23 04:58:25;;;;;;;5.57;3.88;;;;;;;1.16;93.54;98478.59;4880752;29;20551;-71
2022/11/23 05:00:55;;;;;;;6.78;3.90;;;;;;;1.18;93.66;98481.16;4865243;29;20119;-72
2022/11/23 05:03:20;;;;;;;4.43;3.33;;;;;;;1.17;93.66;98482.94;4881231;29;20060;-72
2022/11/23 05:05:45;;;;;;;6.05;3.72;;;;;;;1.15;93.67;98483.94;4881271;29;20046;-72
2022/11/23 05:08:10;;;;;;;4.50;3.60;;;;;;;1.13;93.61;98483.19;4881285;29;20504;-72
2022/11/23 05:10:53;;;;;;;4.53;3.40;;;;;;;1.11;93.27;98483.25;4865279;29;20107;-72
2022/11/23 05:13:17;;;;;;;5.95;4.28;;;;;;;1.11;93.53;98483.25;4865696;29;20099;-72
2022/11/23 05:15:43;;;;;;;4.60;3.90;;;;;;;1.12;93.57;98486.75;4865425;29;20069;-72
2022/11/23 05:18:10;;;;;;;4.88;3.40;;;;;;;1.11;93.56;98485.03;4865247;29;20056;-72
2022/11/23 05:20:38;;;;;;;6.55;4.00;;;;;;;1.13;93.46;98491.06;4885757;28;20057;-72
2022/11/23 05:23:03;;;;;;;8.57;4.50;;;;;;;1.11;93.60;98490.28;4895328;29;20555;-72
2022/11/23 05:25:31;;;;;;;5.10;3.47;;;;;;;1.09;93.64;98493.00;4906046;28;20043;-75
2022/11/23 05:28:03;;;;;;;5.90;4.07;;;;;;;1.08;93.32;98486.03;4904974;29;20058;-71
2022/11/23 05:30:28;;;;;;;5.97;4.05;;;;;;;1.05;93.44;98484.41;4898548;29;20047;-70
2022/11/23 05:32:53;;;;;;;7.40;4.57;;;;;;;1.06;93.67;98483.50;4898679;29;20154;-70
2022/11/23 05:35:19;;;;;;;7.03;4.75;;;;;;;1.06;93.40;98480.88;4890668;29;20039;-69
2022/11/23 05:37:44;;;;;;;7.35;4.72;;;;;;;1.06;93.52;98491.34;4910875;28;20061;-70
2022/11/23 05:40:11;;;;;;;7.80;4.63;;;;;;;1.09;93.75;98485.13;4901144;29;20039;-71
2022/11/23 05:42:37;;;;;;;6.57;4.35;;;;;;;1.09;93.52;98490.38;4890012;29;20054;-69
2022/11/23 05:45:16;;;;;;;7.40;4.40;;;;;;;1.09;93.69;98493.84;4901180;29;20054;-70
2022/11/23 05:47:53;;;;;;;7.97;5.13;;;;;;;1.13;93.54;98493.69;4901247;29;20050;-70
2022/11/23 05:50:27;;;;;;;7.55;5.03;;;;;;;1.14;93.67;98497.97;4885834;29;20406;-69
2022/11/23 05:53:11;;;;;;;6.10;4.45;;;;;;;1.15;93.35;98504.94;4919569;28;20311;-75
2022/11/23 05:55:36;;;;;;;7.07;4.70;;;;;;;1.14;93.34;98500.59;4903008;29;20044;-74
2022/11/23 05:58:01;;;;;;;7.10;4.93;;;;;;;1.13;93.32;98502.38;4921888;28;20511;-74
2022/11/23 06:00:26;;;;;;;8.65;5.03;;;;;;;1.14;93.42;98500.59;4885898;29;20039;-74
2022/11/23 06:03:00;;;;;;;7.40;4.75;;;;;;;1.17;93.41;98497.81;4899494;29;20048;-75
2022/11/23 06:05:26;;;;;;;8.13;4.35;;;;;;;1.15;93.72;98495.28;4900236;29;20047;-74
2022/11/23 06:07:54;;;;;;;6.45;4.30;;;;;;;1.21;93.65;98494.97;4918661;28;20043;-69
2022/11/23 06:10:23;;;;;;;6.78;4.72;;;;;;;1.21;92.99;98492.34;4901155;28;20102;-70
2022/11/23 06:12:49;;;;;;;6.93;4.45;;;;;;;1.20;93.44;98484.56;4901245;29;20046;-70
2022/11/23 06:15:16;;;;;;;6.55;4.38;;;;;;;1.22;93.53;98493.19;4898308;29;20047;-71
2022/11/23 06:17:42;;;;;;;6.35;4.20;;;;;;;1.23;93.60;98500.16;4884006;29;20064;-69
2022/11/23 06:20:12;;;;;;;7.70;4.60;;;;;;;1.23;93.48;98495.75;4897706;29;20043;-69
2022/11/23 06:22:41;;;;;;;4.97;3.40;;;;;;;1.25;93.56;98501.75;4847271;29;20047;-70
2022/11/23 06:25:06;;;;;;;8.30;4.13;;;;;;;1.27;93.27;98499.91;4881664;29;20048;-69
2022/11/23 06:28:01;;;;;;;4.65;3.15;;;;;;;1.32;93.40;98503.16;4882132;29;20059;-69
2022/11/23 06:30:33;;;;;;;5.68;3.75;;;;;;;1.29;93.63;98497.19;4881809;29;20506;-69
2022/11/23 06:33:03;;;;;;;5.03;3.60;;;;;;;1.27;93.14;98501.66;4867854;29;20130;-69
2022/11/23 06:35:29;;;;;;;3.88;3.08;;;;;;;1.28;92.98;98501.59;4881207;29;20044;-69
2022/11/23 06:37:54;;;;;;;7.35;3.50;;;;;;;1.27;93.23;98491.16;4898872;29;20099;-70
2022/11/23 06:40:19;;;;;;;8.52;3.65;;;;;;;1.29;93.26;98494.56;4882970;29;20050;-69
2022/11/23 06:42:43;;;;;;;5.72;3.35;;;;;;;1.27;93.55;98499.03;4899152;29;20043;-70
2022/11/23 06:45:16;;;;;;;5.75;3.72;;;;;;;1.27;93.34;98499.91;4848911;29;20154;-69
2022/11/23 06:47:42;;;;;;;3.65;2.80;;;;;;;1.28;93.47;98508.63;4873261;29;20052;-69
2022/11/23 06:50:08;;;;;;;4.53;3.35;;;;;;;1.29;93.57;98505.06;4881546;29;20135;-69
2022/11/23 06:52:35;;;;;;;4.57;3.47;;;;;;;1.28;93.56;98503.38;4881491;29;20139;-69
2022/11/23 06:55:01;;;;;;;4.30;2.83;;;;;;;1.28;93.18;98503.38;4898466;29;20499;-71
2022/11/23 06:57:27;;;;;;;6.75;3.30;;;;;;;1.29;93.52;98505.06;4881830;29;20043;-71
2022/11/23 06:59:53;;;;;;;3.53;3.13;;;;;;;1.30;93.26;98509.41;4853012;29;20048;-72
2022/11/23 07:02:23;;;;;;;4.05;2.95;;;;;;;1.30;93.25;98514.66;4884157;29;20158;-71
2022/11/23 07:04:51;;;;;;;4.72;2.50;;;;;;;1.32;93.19;98518.91;4865786;29;20071;-71
2022/11/23 07:07:17;;;;;;;11.15;3.38;;;;;;;1.31;92.92;98516.34;4881282;29;20047;-72
2022/11/23 07:09:48;;;;;;;3.50;2.80;;;;;;;1.32;93.46;98518.91;4865758;29;20043;-73
2022/11/23 07:12:39;;;;;;;3.20;2.90;;;;;;;1.35;93.15;98524.00;4896431;29;20048;-72
2022/11/23 07:15:06;;;;;;;4.65;2.92;;;;;;;1.38;93.06;98525.59;4862902;29;20751;-72
2022/11/23 07:17:38;;;;;;;15.88;4.20;;;;;;;1.38;93.43;98518.56;4896458;28;20614;-71
2022/11/23 07:20:03;;;;;;;4.85;3.17;;;;;;;1.40;93.06;98521.13;4876739;29;20055;-72
2022/11/23 07:22:28;;;;;;;4.03;3.08;;;;;;;1.40;93.13;98524.59;4883543;29;20046;-71
2022/11/23 07:24:53;;;;;;;4.97;3.65;;;;;;;1.40;93.24;98526.38;4882007;29;20047;-73
2022/11/23 07:27:19;;;;;;;4.85;3.65;;;;;;;1.39;92.88;98527.28;4899819;29;20126;-73
2022/11/23 07:29:43;;;;;;;4.07;3.38;;;;;;;1.42;93.15;98529.75;4883934;29;20509;-73
2022/11/23 07:32:09;;;;;;;8.07;4.47;;;;;;;1.41;93.26;98533.31;4869986;29;20046;-73
2022/11/23 07:34:34;;;;;;;5.22;4.20;;;;;;;1.39;93.16;98530.75;4870531;29;20063;-72
2022/11/23 07:36:58;;;;;;;6.75;4.82;;;;;;;1.38;93.24;98528.22;4901410;29;20043;-73
2022/11/23 07:39:23;;;;;;;8.32;5.03;;;;;;;1.35;93.29;98525.78;4901929;29;20131;-72
2022/11/23 07:41:49;;;;;;;7.70;5.72;;;;;;;1.32;93.03;98525.91;4885905;29;20100;-74
2022/11/23 07:44:19;;;;;;;10.05;5.82;;;;;;;1.32;93.50;98521.53;4903702;29;20487;-74
2022/11/23 07:46:44;;;;;;;9.48;6.05;;;;;;;1.34;92.90;98530.19;4904451;29;20470;-74
2022/11/23 07:49:08;;;;;;;10.32;5.97;;;;;;;1.32;93.21;98524.16;4915227;29;20052;-69
2022/11/23 07:51:33;;;;;;;13.02;7.15;;;;;;;1.35;93.23;98521.38;4871020;29;20036;-70
2022/11/23 07:53:57;;;;;;;10.48;6.65;;;;;;;1.35;93.05;98520.53;4877931;29;20044;-71
2022/11/23 07:56:23;;;;;;;9.80;6.85;;;;;;;1.35;93.20;98525.78;4877443;29;20454;-69
2022/11/23 07:58:47;;;;;;;9.27;7.07;;;;;;;1.33;93.28;98522.38;4901185;29;20470;-69
2022/11/23 08:01:18;;;;;;;11.25;7.75;;;;;;;1.35;93.39;98520.53;4900896;29;20458;-70
2022/11/23 08:03:47;;;;;;;10.40;6.70;;;;;;;1.33;93.26;98525.84;4868379;29;20039;-69
2022/11/23 08:06:13;;;;;;;10.98;6.95;;;;;;;1.35;93.22;98528.41;4901455;29;20852;-69
2022/11/23 08:08:38;;;;;;;11.13;7.05;;;;;;;1.37;93.13;98531.78;4900918;29;20051;-70
2022/11/23 08:11:06;;;;;;;10.60;7.38;;;;;;;1.39;93.04;98535.16;4900971;29;20051;-70
2022/11/23 08:13:33;;;;;;;14.48;8.07;;;;;;;1.40;92.99;98529.00;4901006;29;20131;-71
2022/11/23 08:15:58;;;;;;;11.98;8.52;;;;;;;1.40;93.31;98534.25;4904418;28;20066;-69
2022/11/23 08:18:23;;;;;;;14.38;8.57;;;;;;;1.44;93.29;98533.16;4886686;29;20043;-71
2022/11/23 08:20:47;;;;;;;12.15;9.88;;;;;;;1.45;93.19;98533.09;4903119;29;20050;-70
2022/11/23 08:23:12;;;;;;;13.23;8.82;;;;;;;1.47;93.26;98522.47;4893931;29;20047;-72
2022/11/23 08:25:36;;;;;;;12.88;8.57;;;;;;;1.46;93.07;98526.06;4915234;28;20097;-70
2022/11/23 08:28:03;;;;;;;13.10;7.95;;;;;;;1.47;93.16;98534.78;4895756;29;20055;-71
2022/11/23 08:30:29;;;;;;;13.15;7.75;;;;;;;1.45;93.11;98540.13;4880788;29;20059;-71
2022/11/23 08:32:54;;;;;;;12.32;8.18;;;;;;;1.45;93.34;98532.25;4919774;28;20050;-71
2022/11/23 08:35:19;;;;;;;10.88;7.68;;;;;;;1.44;92.83;98534.00;4902656;29;20047;-70
2022/11/23 08:37:44;;;;;;;11.63;7.78;;;;;;;1.48;92.84;98533.84;4918350;28;20051;-70
2022/11/23 08:40:10;;;;;;;13.07;8.77;;;;;;;1.49;93.27;98543.41;4919438;28;20879;-71
2022/11/23 08:42:34;;;;;;;13.32;8.40;;;;;;;1.45;93.13;98534.88;4920034;28;20050;-70
2022/11/23 08:45:01;;;;;;;11.75;7.80;;;;;;;1.43;92.92;98549.84;4902353;28;20047;-71
2022/11/23 08:47:28;;;;;;;9.70;7.25;;;;;;;1.44;92.93;98551.53;4893963;29;20530;-70
2022/11/23 08:49:52;;;;;;;14.23;8.20;;;;;;;1.44;92.93;98548.91;4913894;28;20051;-68
2022/11/23 08:52:17;;;;;;;14.30;7.38;;;;;;;1.40;92.96;98548.22;4902365;29;20487;-67
2022/11/23 08:54:42;;;;;;;11.55;7.10;;;;;;;1.37;92.99;98545.75;4919355;28;20406;-69
2022/11/23 08:57:06;;;;;;;9.43;7.00;;;;;;;1.36;92.96;98551.06;4902206;29;20078;-69
2022/11/23 08:59:31;;;;;;;10.13;6.85;;;;;;;1.34;93.04;98547.69;4902423;29;20122;-69
2022/11/23 09:01:55;;;;;;;8.02;6.07;;;;;;;1.35;93.21;98546.78;4886176;28;20051;-72
2022/11/23 09:04:20;;;;;;;9.00;6.13;;;;;;;1.34;92.77;98548.56;4918115;28;20038;-71
2022/11/23 09:06:45;;;;;;;9.45;6.38;;;;;;;1.35;92.67;98546.78;4902073;28;20882;-72
2022/11/23 09:09:09;;;;;;;9.10;6.28;;;;;;;1.35;93.11;98541.53;4901944;29;20456;-70
2022/11/23 09:11:34;;;;;;;15.27;6.15;;;;;;;1.36;92.77;98537.94;4919377;28;20461;-71
2022/11/23 09:13:59;;;;;;;9.57;6.93;;;;;;;1.35;92.90;98533.66;4918987;28;20042;-73
2022/11/23 09:16:23;;;;;;;11.50;5.68;;;;;;;1.37;92.57;98542.28;4898588;29;20059;-70
2022/11/23 09:18:48;;;;;;;11.13;6.10;;;;;;;1.39;92.74;98548.28;4884056;28;20099;-72
2022/11/23 09:21:13;;;;;;;8.55;5.82;;;;;;;1.37;92.76;98543.13;4918888;28;20051;-67
2022/11/23 09:23:38;;;;;;;9.10;5.95;;;;;;;1.39;93.11;98546.53;4889151;29;20047;-68
2022/11/23 09:26:03;;;;;;;9.10;5.93;;;;;;;1.40;92.73;98547.38;4917830;28;20086;-69
2022/11/23 09:28:29;;;;;;;7.25;5.97;;;;;;;1.41;93.00;98549.91;4919404;28;20514;-72
2022/11/23 09:30:54;;;;;;;6.28;4.82;;;;;;;1.41;92.95;98551.69;4919747;28;20043;-71
2022/11/23 09:33:20;;;;;;;9.68;5.53;;;;;;;1.38;92.51;98550.06;4902760;29;20499;-71
2022/11/23 09:35:44;;;;;;;6.85;5.32;;;;;;;1.37;92.88;98550.16;4919037;28;20047;-71
2022/11/23 09:38:09;;;;;;;11.95;4.97;;;;;;;1.36;92.71;98557.19;4919367;28;20134;-73
2022/11/23 09:40:39;;;;;;;5.10;4.22;;;;;;;1.39;92.47;98541.28;4909790;29;20080;-77
2022/11/23 09:43:26;;;;;;;7.28;5.65;;;;;;;1.41;92.95;98556.94;4918778;28;20043;-75
2022/11/23 09:45:58;;;;;;;5.97;4.50;;;;;;;1.42;92.81;98549.00;4894045;29;20459;-75
2022/11/23 09:48:54;;;;;;;6.93;4.70;;;;;;;1.47;93.05;98553.16;4918406;28;20073;-77
2022/11/23 09:51:21;;;;;;;6.03;4.82;;;;;;;1.42;92.53;98548.16;4903040;29;20422;-75
2022/11/23 09:53:54;;;;;;;6.25;4.75;;;;;;;1.44;92.72;98554.16;4883600;29;20078;-76
2022/11/23 09:56:24;;;;;;;8.52;5.20;;;;;;;1.44;93.09;98555.03;4926939;28;20055;-77
2022/11/23 09:58:54;;;;;;;9.65;6.20;;;;;;;1.45;92.51;98556.72;4927029;28;20050;-77
2022/11/23 10:01:20;;;;;;;7.22;4.80;;;;;;;1.44;92.76;98564.69;4925648;28;20054;-77
2022/11/23 10:03:44;;;;;;;8.27;5.38;;;;;;;1.43;92.65;98549.84;4927373;28;20051;-75
2022/11/23 10:06:15;;;;;;;5.97;5.05;;;;;;;1.46;92.55;98552.31;4923173;28;20860;-77
2022/11/23 10:09:24;;;;;;;6.07;4.30;;;;;;;1.47;92.55;98547.91;4903003;28;20179;-75
2022/11/23 10:12:19;;;;;;;6.00;4.65;;;;;;;1.43;92.74;98548.06;4920302;28;20058;-77
2022/11/23 10:15:16;;;;;;;5.95;5.07;;;;;;;1.38;92.55;98550.06;4899866;29;20431;-70
2022/11/23 10:17:50;;;;;;;7.00;4.88;;;;;;;1.37;92.39;98545.75;4890142;28;20114;-70
2022/11/23 10:20:52;;;;;;;7.32;5.10;;;;;;;1.42;92.53;98551.63;4921041;28;20039;-71
2022/11/23 10:23:32;;;;;;;6.82;4.65;;;;;;;1.45;92.23;98548.00;4906963;29;20039;-71
2022/11/23 10:25:56;;;;;;;8.85;6.07;;;;;;;1.41;92.50;98549.91;4911533;28;20067;-73
2022/11/23 10:28:22;;;;;;;8.60;4.88;;;;;;;1.43;92.01;98558.56;4909784;29;20046;-72
2022/11/23 10:30:54;;;;;;;5.40;4.85;;;;;;;1.44;92.50;98557.66;4923763;28;20047;-72
2022/11/23 10:33:27;;;;;;;6.00;4.72;;;;;;;1.47;92.50;98561.88;4897382;29;20095;-70
2022/11/23 10:35:52;;;;;;;5.55;4.13;;;;;;;1.40;92.61;98563.97;4919826;28;20146;-70
2022/11/23 10:38:19;;;;;;;6.60;4.20;;;;;;;1.36;92.40;98562.44;4921915;28;20099;-71
2022/11/23 10:41:09;;;;;;;7.97;4.90;;;;;;;1.37;92.04;98558.03;4923908;28;20043;-71
2022/11/23 10:44:03;;;;;;;5.32;4.25;;;;;;;1.37;91.98;98551.00;4926374;28;20086;-71
2022/11/23 10:46:37;;;;;;;7.10;3.97;;;;;;;1.38;91.87;98559.72;4927419;28;20043;-69
2022/11/23 10:49:14;;;;;;;10.27;4.30;;;;;;;1.30;92.25;98559.28;4928077;28;20051;-68
2022/11/23 10:51:40;;;;;;;5.97;4.00;;;;;;;1.25;91.87;98559.50;4927587;28;20047;-70
2022/11/23 10:54:18;;;;;;;6.32;3.85;;;;;;;1.28;92.31;98561.97;4927367;28;20078;-69
2022/11/23 10:56:48;;;;;;;7.65;4.15;;;;;;;1.29;92.18;98573.31;4901565;28;20050;-70
2022/11/23 10:59:25;;;;;;;5.68;4.18;;;;;;;1.30;92.06;98578.50;4918516;28;20045;-71
2022/11/23 11:02:19;;;;;;;6.90;5.13;;;;;;;1.31;91.81;98571.47;4901103;28;20102;-69
2022/11/23 11:04:45;;;;;;;7.65;4.57;;;;;;;1.26;91.95;98566.44;4894879;29;20094;-73
2022/11/23 11:07:16;;;;;;;6.75;4.35;;;;;;;1.28;92.05;98577.72;4884877;29;20209;-69
2022/11/23 11:09:41;;;;;;;10.88;5.15;;;;;;;1.26;92.35;98570.84;4901098;29;20051;-69
2022/11/23 11:12:18;;;;;;;7.13;4.07;;;;;;;1.30;92.09;98572.41;4900447;29;20051;-68
2022/11/23 11:15:01;;;;;;;7.05;4.20;;;;;;;1.31;92.01;98580.22;4885271;29;20102;-70
2022/11/23 11:17:34;;;;;;;4.78;3.85;;;;;;;1.31;91.88;98574.97;4884977;29;20059;-72
2022/11/23 11:20:21;;;;;;;8.73;4.63;;;;;;;1.34;92.01;98590.56;4882521;29;20054;-71
2022/11/23 11:22:46;;;;;;;7.55;4.68;;;;;;;1.35;91.65;98587.00;4865849;29;20048;-71
2022/11/23 11:25:26;;;;;;;8.50;5.00;;;;;;;1.42;92.01;98584.91;4866227;29;20040;-68
2022/11/23 11:27:51;;;;;;;8.75;4.57;;;;;;;1.37;92.00;98594.78;4881093;29;20101;-71
2022/11/23 11:30:21;;;;;;;6.65;4.68;;;;;;;1.41;91.72;98588.47;4885716;29;20135;-71
2022/11/23 11:32:58;;;;;;;9.35;5.03;;;;;;;1.39;91.68;98585.91;4865552;29;20526;-71
2022/11/23 11:35:31;;;;;;;6.45;4.60;;;;;;;1.40;91.67;98597.25;4880662;29;20050;-73
2022/11/23 11:38:14;;;;;;;9.80;5.88;;;;;;;1.42;91.70;98598.88;4889691;29;20075;-72
2022/11/23 11:40:46;;;;;;;9.10;4.53;;;;;;;1.41;91.80;98596.34;4902042;29;20036;-75
2022/11/23 11:43:13;;;;;;;6.90;5.10;;;;;;;1.42;91.63;98598.03;4901784;29;20139;-75
2022/11/23 11:45:45;;;;;;;10.45;5.45;;;;;;;1.49;91.50;98606.44;4885187;29;20137;-74